sensor_id;sensor_type;location;lat;lon;timestamp;temperature;humidity
47350;DHT22;33088;51.982;5.872;2022-11-11T00:02:12;9.30;99.90
47350;DHT22;33088;51.982;5.872;2022-11-11T00:04:56;9.10;99.90
47350;DHT22;33088;51.982;5.872;2022-11-11T00:07:41;9.20;99.90
47350;DHT22;33088;51.982;5.872;2022-11-11T00:10:29;9.20;99.90
47350;DHT22;33088;51.982;5.872;2022-11-11T00:13:13;9.10;99.90
47350;DHT22;33088;51.982;5.872;2022-11-11T00:16:18;9.20;99.90
47350;DHT22;33088;51.982;5.872;2022-11-11T00:19:02;9.20;99.90
47350;DHT22;33088;51.982;5.872;2022-11-11T00:22:09;9.20;99.90
47350;DHT22;33088;51.982;5.872;2022-11-11T00:25:17;9.20;99.90
47350;DHT22;33088;51.982;5.872;2022-11-11T00:28:01;9.30;99.90
47350;DHT22;33088;51.982;5.872;2022-11-11T00:30:45;9.30;99.90
47350;DHT22;33088;51.982;5.872;2022-11-11T00:33:29;9.30;99.90
47350;DHT22;33088;51.982;5.872;2022-11-11T00:36:13;9.40;99.90
47350;DHT22;33088;51.982;5.872;2022-11-11T00:38:57;9.40;99.90
47350;DHT22;33088;51.982;5.872;2022-11-11T00:41:41;9.50;99.90
47350;DHT22;33088;51.982;5.872;2022-11-11T00:44:25;9.40;99.90
47350;DHT22;33088;51.982;5.872;2022-11-11T00:47:09;9.40;99.90
47350;DHT22;33088;51.982;5.872;2022-11-11T00:53:25;9.50;99.90
47350;DHT22;33088;51.982;5.872;2022-11-11T00:56:10;9.50;99.90
47350;DHT22;33088;51.982;5.872;2022-11-11T00:58:54;9.40;99.90
47350;DHT22;33088;51.982;5.872;2022-11-11T01:01:38;9.50;99.90
47350;DHT22;33088;51.982;5.872;2022-11-11T01:04:22;9.50;99.90
47350;DHT22;33088;51.982;5.872;2022-11-11T01:07:07;9.60;99.90
47350;DHT22;33088;51.982;5.872;2022-11-11T01:09:51;9.60;99.90
47350;DHT22;33088;51.982;5.872;2022-11-11T01:12:35;9.70;99.90
47350;DHT22;33088;51.982;5.872;2022-11-11T01:15:20;9.60;99.90
47350;DHT22;33088;51.982;5.872;2022-11-11T01:18:05;9.60;99.90
47350;DHT22;33088;51.982;5.872;2022-11-11T01:21:22;9.60;99.90
47350;DHT22;33088;51.982;5.872;2022-11-11T01:24:07;9.70;99.90
47350;DHT22;33088;51.982;5.872;2022-11-11T01:26:51;9.70;99.90
47350;DHT22;33088;51.982;5.872;2022-11-11T01:29:35;9.70;99.90
47350;DHT22;33088;51.982;5.872;2022-11-11T01:32:19;9.70;99.90
47350;DHT22;33088;51.982;5.872;2022-11-11T01:35:03;9.70;99.90
47350;DHT22;33088;51.982;5.872;2022-11-11T01:37:48;9.70;99.90
47350;DHT22;33088;51.982;5.872;2022-11-11T01:40:39;9.60;99.90
47350;DHT22;33088;51.982;5.872;2022-11-11T01:43:24;9.60;99.90
47350;DHT22;33088;51.982;5.872;2022-11-11T01:46:19;9.90;99.90
47350;DHT22;33088;51.982;5.872;2022-11-11T01:49:20;9.70;99.90
47350;DHT22;33088;51.982;5.872;2022-11-11T01:52:18;9.90;99.90
47350;DHT22;33088;51.982;5.872;2022-11-11T01:55:12;9.70;99.90
47350;DHT22;33088;51.982;5.872;2022-11-11T01:58:06;9.80;99.90
47350;DHT22;33088;51.982;5.872;2022-11-11T02:00:52;9.70;99.90
47350;DHT22;33088;51.982;5.872;2022-11-11T02:03:40;9.80;99.90
47350;DHT22;33088;51.982;5.872;2022-11-11T02:06:25;9.90;99.90
47350;DHT22;33088;51.982;5.872;2022-11-11T02:09:10;9.90;99.90
47350;DHT22;33088;51.982;5.872;2022-11-11T02:11:57;9.90;99.90
47350;DHT22;33088;51.982;5.872;2022-11-11T02:15:22;9.90;99.90
47350;DHT22;33088;51.982;5.872;2022-11-11T02:18:07;9.90;99.90
47350;DHT22;33088;51.982;5.872;2022-11-11T02:20:51;9.90;99.90
47350;DHT22;33088;51.982;5.872;2022-11-11T02:23:52;9.90;99.90
47350;DHT22;33088;51.982;5.872;2022-11-11T02:26:37;9.90;99.90
47350;DHT22;33088;51.982;5.872;2022-11-11T02:29:22;10.00;99.90
47350;DHT22;33088;51.982;5.872;2022-11-11T02:32:07;10.00;99.90
47350;DHT22;33088;51.982;5.872;2022-11-11T02:34:51;9.90;99.90
47350;DHT22;33088;51.982;5.872;2022-11-11T02:37:36;9.90;99.90
47350;DHT22;33088;51.982;5.872;2022-11-11T02:40:28;10.20;99.90
47350;DHT22;33088;51.982;5.872;2022-11-11T02:43:13;9.90;99.90
47350;DHT22;33088;51.982;5.872;2022-11-11T02:45:57;9.90;99.90
47350;DHT22;33088;51.982;5.872;2022-11-11T02:48:42;9.90;99.90
47350;DHT22;33088;51.982;5.872;2022-11-11T02:51:26;10.00;99.90
47350;DHT22;33088;51.982;5.872;2022-11-11T02:54:10;9.90;99.90
47350;DHT22;33088;51.982;5.872;2022-11-11T02:56:54;9.90;99.90
47350;DHT22;33088;51.982;5.872;2022-11-11T02:59:50;9.90;99.90
47350;DHT22;33088;51.982;5.872;2022-11-11T03:02:34;9.90;99.90
47350;DHT22;33088;51.982;5.872;2022-11-11T03:05:18;10.00;99.90
47350;DHT22;33088;51.982;5.872;2022-11-11T03:08:03;10.00;99.90
47350;DHT22;33088;51.982;5.872;2022-11-11T03:10:47;10.00;99.90
47350;DHT22;33088;51.982;5.872;2022-11-11T03:13:31;10.30;99.90
47350;DHT22;33088;51.982;5.872;2022-11-11T03:16:15;10.20;99.90
47350;DHT22;33088;51.982;5.872;2022-11-11T03:19:19;10.00;99.90
47350;DHT22;33088;51.982;5.872;2022-11-11T03:22:03;10.10;99.90
47350;DHT22;33088;51.982;5.872;2022-11-11T03:24:48;10.20;99.90
47350;DHT22;33088;51.982;5.872;2022-11-11T03:27:51;10.00;99.90
47350;DHT22;33088;51.982;5.872;2022-11-11T03:30:37;10.00;99.90
47350;DHT22;33088;51.982;5.872;2022-11-11T03:33:21;10.00;99.90
47350;DHT22;33088;51.982;5.872;2022-11-11T03:36:05;10.00;99.90
47350;DHT22;33088;51.982;5.872;2022-11-11T03:38:50;9.90;99.90
47350;DHT22;33088;51.982;5.872;2022-11-11T03:41:34;10.00;99.90
47350;DHT22;33088;51.982;5.872;2022-11-11T03:44:18;10.00;99.90
47350;DHT22;33088;51.982;5.872;2022-11-11T03:47:02;10.00;99.90
47350;DHT22;33088;51.982;5.872;2022-11-11T03:49:47;10.10;99.90
47350;DHT22;33088;51.982;5.872;2022-11-11T03:52:31;9.90;99.90
47350;DHT22;33088;51.982;5.872;2022-11-11T03:55:15;10.00;99.90
47350;DHT22;33088;51.982;5.872;2022-11-11T03:57:59;10.10;99.90
47350;DHT22;33088;51.982;5.872;2022-11-11T04:00:44;10.00;99.90
47350;DHT22;33088;51.982;5.872;2022-11-11T04:03:28;10.00;99.90
47350;DHT22;33088;51.982;5.872;2022-11-11T04:06:31;10.20;99.90
47350;DHT22;33088;51.982;5.872;2022-11-11T04:09:34;10.00;99.90
47350;DHT22;33088;51.982;5.872;2022-11-11T04:12:37;10.00;99.90
47350;DHT22;33088;51.982;5.872;2022-11-11T04:15:42;9.90;99.90
47350;DHT22;33088;51.982;5.872;2022-11-11T04:18:45;9.90;99.90
47350;DHT22;33088;51.982;5.872;2022-11-11T04:21:48;10.00;99.90
47350;DHT22;33088;51.982;5.872;2022-11-11T04:24:32;9.90;99.90
47350;DHT22;33088;51.982;5.872;2022-11-11T04:27:35;9.90;99.90
47350;DHT22;33088;51.982;5.872;2022-11-11T04:30:19;9.90;99.90
47350;DHT22;33088;51.982;5.872;2022-11-11T04:33:03;9.80;99.90
47350;DHT22;33088;51.982;5.872;2022-11-11T04:35:48;9.90;99.90
47350;DHT22;33088;51.982;5.872;2022-11-11T04:38:33;9.90;99.90
47350;DHT22;33088;51.982;5.872;2022-11-11T04:41:36;9.90;99.90
47350;DHT22;33088;51.982;5.872;2022-11-11T04:44:20;9.90;99.90
47350;DHT22;33088;51.982;5.872;2022-11-11T04:47:23;9.90;99.90
47350;DHT22;33088;51.982;5.872;2022-11-11T04:50:08;9.80;99.90
47350;DHT22;33088;51.982;5.872;2022-11-11T04:52:52;9.80;99.90
47350;DHT22;33088;51.982;5.872;2022-11-11T04:55:37;10.10;99.90
47350;DHT22;33088;51.982;5.872;2022-11-11T04:58:40;9.80;99.90
47350;DHT22;33088;51.982;5.872;2022-11-11T05:01:24;9.70;99.90
47350;DHT22;33088;51.982;5.872;2022-11-11T05:04:27;9.90;99.90
47350;DHT22;33088;51.982;5.872;2022-11-11T05:07:11;9.90;99.90
47350;DHT22;33088;51.982;5.872;2022-11-11T05:10:14;9.80;99.90
47350;DHT22;33088;51.982;5.872;2022-11-11T05:12:58;9.80;99.90
47350;DHT22;33088;51.982;5.872;2022-11-11T05:16:01;9.90;99.90
47350;DHT22;33088;51.982;5.872;2022-11-11T05:19:04;9.90;99.90
47350;DHT22;33088;51.982;5.872;2022-11-11T05:22:20;9.90;99.90
47350;DHT22;33088;51.982;5.872;2022-11-11T05:25:06;9.90;99.90
47350;DHT22;33088;51.982;5.872;2022-11-11T05:28:09;9.90;99.90
47350;DHT22;33088;51.982;5.872;2022-11-11T05:30:53;9.70;99.90
47350;DHT22;33088;51.982;5.872;2022-11-11T05:33:37;9.80;99.90
47350;DHT22;33088;51.982;5.872;2022-11-11T05:36:22;9.80;99.90
47350;DHT22;33088;51.982;5.872;2022-11-11T05:39:06;10.00;99.90
47350;DHT22;33088;51.982;5.872;2022-11-11T05:41:50;9.90;99.90
47350;DHT22;33088;51.982;5.872;2022-11-11T05:44:35;9.90;99.90
47350;DHT22;33088;51.982;5.872;2022-11-11T05:47:19;9.80;99.90
47350;DHT22;33088;51.982;5.872;2022-11-11T05:50:03;9.80;99.90
47350;DHT22;33088;51.982;5.872;2022-11-11T05:52:48;9.80;99.90
47350;DHT22;33088;51.982;5.872;2022-11-11T05:55:33;9.80;99.90
47350;DHT22;33088;51.982;5.872;2022-11-11T05:58:20;10.00;99.90
47350;DHT22;33088;51.982;5.872;2022-11-11T06:01:05;9.80;99.90
47350;DHT22;33088;51.982;5.872;2022-11-11T06:03:49;9.80;99.90
47350;DHT22;33088;51.982;5.872;2022-11-11T06:06:34;10.00;99.90
47350;DHT22;33088;51.982;5.872;2022-11-11T06:09:18;9.80;99.90
47350;DHT22;33088;51.982;5.872;2022-11-11T06:12:02;10.00;99.90
47350;DHT22;33088;51.982;5.872;2022-11-11T06:14:46;9.70;99.90
47350;DHT22;33088;51.982;5.872;2022-11-11T06:17:32;9.90;99.90
47350;DHT22;33088;51.982;5.872;2022-11-11T06:20:16;9.90;99.90
47350;DHT22;33088;51.982;5.872;2022-11-11T06:23:02;9.80;99.90
47350;DHT22;33088;51.982;5.872;2022-11-11T06:25:47;9.70;99.90
47350;DHT22;33088;51.982;5.872;2022-11-11T06:28:55;9.70;99.90
47350;DHT22;33088;51.982;5.872;2022-11-11T06:31:39;9.60;99.90
47350;DHT22;33088;51.982;5.872;2022-11-11T06:34:23;9.60;99.90
47350;DHT22;33088;51.982;5.872;2022-11-11T06:37:07;9.80;99.90
47350;DHT22;33088;51.982;5.872;2022-11-11T06:39:51;9.60;99.90
47350;DHT22;33088;51.982;5.872;2022-11-11T06:42:36;9.60;99.90
47350;DHT22;33088;51.982;5.872;2022-11-11T06:45:20;9.60;99.90
47350;DHT22;33088;51.982;5.872;2022-11-11T06:48:05;9.60;99.90
47350;DHT22;33088;51.982;5.872;2022-11-11T06:50:50;9.60;99.90
47350;DHT22;33088;51.982;5.872;2022-11-11T06:53:35;9.60;99.90
47350;DHT22;33088;51.982;5.872;2022-11-11T06:56:20;9.60;99.90
47350;DHT22;33088;51.982;5.872;2022-11-11T06:59:04;9.60;99.90
47350;DHT22;33088;51.982;5.872;2022-11-11T07:01:49;9.60;99.90
47350;DHT22;33088;51.982;5.872;2022-11-11T07:04:33;9.60;99.90
47350;DHT22;33088;51.982;5.872;2022-11-11T07:07:18;9.60;99.90
47350;DHT22;33088;51.982;5.872;2022-11-11T07:10:02;9.60;99.90
47350;DHT22;33088;51.982;5.872;2022-11-11T07:12:50;9.60;99.90
47350;DHT22;33088;51.982;5.872;2022-11-11T07:15:35;9.50;99.90
47350;DHT22;33088;51.982;5.872;2022-11-11T07:18:20;9.60;99.90
47350;DHT22;33088;51.982;5.872;2022-11-11T07:21:04;9.50;99.90
47350;DHT22;33088;51.982;5.872;2022-11-11T07:23:49;9.40;99.90
47350;DHT22;33088;51.982;5.872;2022-11-11T07:26:34;9.50;99.90
47350;DHT22;33088;51.982;5.872;2022-11-11T07:29:18;9.50;99.90
47350;DHT22;33088;51.982;5.872;2022-11-11T07:32:02;9.50;99.90
47350;DHT22;33088;51.982;5.872;2022-11-11T07:34:47;9.50;99.90
47350;DHT22;33088;51.982;5.872;2022-11-11T07:37:32;9.40;99.90
47350;DHT22;33088;51.982;5.872;2022-11-11T07:40:18;9.30;99.90
47350;DHT22;33088;51.982;5.872;2022-11-11T07:43:02;9.60;99.90
47350;DHT22;33088;51.982;5.872;2022-11-11T07:45:46;9.20;99.90
47350;DHT22;33088;51.982;5.872;2022-11-11T07:48:30;9.30;99.90
47350;DHT22;33088;51.982;5.872;2022-11-11T07:51:14;9.20;99.90
47350;DHT22;33088;51.982;5.872;2022-11-11T07:53:58;9.00;99.90
47350;DHT22;33088;51.982;5.872;2022-11-11T07:56:43;9.10;99.90
47350;DHT22;33088;51.982;5.872;2022-11-11T07:59:27;9.30;99.90
47350;DHT22;33088;51.982;5.872;2022-11-11T08:02:12;9.10;99.90
47350;DHT22;33088;51.982;5.872;2022-11-11T08:04:56;9.10;99.90
47350;DHT22;33088;51.982;5.872;2022-11-11T08:07:41;9.10;99.90
47350;DHT22;33088;51.982;5.872;2022-11-11T08:10:28;9.00;99.90
47350;DHT22;33088;51.982;5.872;2022-11-11T08:13:12;9.00;99.90
47350;DHT22;33088;51.982;5.872;2022-11-11T08:16:15;8.90;99.90
47350;DHT22;33088;51.982;5.872;2022-11-11T08:19:00;8.90;99.90
47350;DHT22;33088;51.982;5.872;2022-11-11T08:21:44;8.90;99.90
47350;DHT22;33088;51.982;5.872;2022-11-11T08:24:28;9.10;99.90
47350;DHT22;33088;51.982;5.872;2022-11-11T08:27:13;9.00;99.90
47350;DHT22;33088;51.982;5.872;2022-11-11T08:29:57;9.00;99.90
47350;DHT22;33088;51.982;5.872;2022-11-11T08:32:41;9.10;99.90
47350;DHT22;33088;51.982;5.872;2022-11-11T08:35:26;9.10;99.90
47350;DHT22;33088;51.982;5.872;2022-11-11T08:38:11;9.10;99.90
47350;DHT22;33088;51.982;5.872;2022-11-11T08:41:00;9.10;99.90
47350;DHT22;33088;51.982;5.872;2022-11-11T08:43:45;9.10;99.90
47350;DHT22;33088;51.982;5.872;2022-11-11T08:46:29;9.10;99.90
47350;DHT22;33088;51.982;5.872;2022-11-11T08:49:14;9.00;99.90
47350;DHT22;33088;51.982;5.872;2022-11-11T08:51:58;9.00;99.90
47350;DHT22;33088;51.982;5.872;2022-11-11T08:54:42;9.00;99.90
47350;DHT22;33088;51.982;5.872;2022-11-11T08:57:26;8.90;99.90
47350;DHT22;33088;51.982;5.872;2022-11-11T09:00:11;9.00;99.90
47350;DHT22;33088;51.982;5.872;2022-11-11T09:03:00;9.00;99.90
47350;DHT22;33088;51.982;5.872;2022-11-11T09:05:45;9.00;99.90
47350;DHT22;33088;51.982;5.872;2022-11-11T09:08:30;9.10;99.90
47350;DHT22;33088;51.982;5.872;2022-11-11T09:11:14;9.20;99.90
47350;DHT22;33088;51.982;5.872;2022-11-11T09:13:58;9.10;99.90
47350;DHT22;33088;51.982;5.872;2022-11-11T09:16:42;9.00;99.90
47350;DHT22;33088;51.982;5.872;2022-11-11T09:19:26;9.00;99.90
47350;DHT22;33088;51.982;5.872;2022-11-11T09:22:10;9.00;99.90
47350;DHT22;33088;51.982;5.872;2022-11-11T09:24:55;9.10;99.90
47350;DHT22;33088;51.982;5.872;2022-11-11T09:27:39;9.10;99.90
47350;DHT22;33088;51.982;5.872;2022-11-11T09:30:25;9.10;99.90
47350;DHT22;33088;51.982;5.872;2022-11-11T09:33:09;9.00;99.90
47350;DHT22;33088;51.982;5.872;2022-11-11T09:35:57;9.20;99.90
47350;DHT22;33088;51.982;5.872;2022-11-11T09:38:42;9.20;99.90
47350;DHT22;33088;51.982;5.872;2022-11-11T09:44:58;9.10;99.90
47350;DHT22;33088;51.982;5.872;2022-11-11T09:50:38;9.40;99.90
47350;DHT22;33088;51.982;5.872;2022-11-11T09:53:39;9.40;99.90
47350;DHT22;33088;51.982;5.872;2022-11-11T09:56:26;9.50;99.90
47350;DHT22;33088;51.982;5.872;2022-11-11T09:59:20;9.50;99.90
47350;DHT22;33088;51.982;5.872;2022-11-11T10:02:17;9.60;99.90
47350;DHT22;33088;51.982;5.872;2022-11-11T10:05:10;9.60;99.90
47350;DHT22;33088;51.982;5.872;2022-11-11T10:08:00;9.70;99.90
47350;DHT22;33088;51.982;5.872;2022-11-11T10:10:57;9.90;99.90
47350;DHT22;33088;51.982;5.872;2022-11-11T10:13:42;9.90;99.90
47350;DHT22;33088;51.982;5.872;2022-11-11T10:22:52;10.20;99.90
47350;DHT22;33088;51.982;5.872;2022-11-11T10:25:45;10.30;99.90
47350;DHT22;33088;51.982;5.872;2022-11-11T10:28:35;10.30;99.90
47350;DHT22;33088;51.982;5.872;2022-11-11T10:31:22;10.40;99.90
47350;DHT22;33088;51.982;5.872;2022-11-11T10:34:11;10.50;99.90
47350;DHT22;33088;51.982;5.872;2022-11-11T10:36:56;10.60;99.90
47350;DHT22;33088;51.982;5.872;2022-11-11T10:42:33;10.80;99.90
47350;DHT22;33088;51.982;5.872;2022-11-11T10:45:26;10.90;99.90
47350;DHT22;33088;51.982;5.872;2022-11-11T10:48:17;11.10;99.90
47350;DHT22;33088;51.982;5.872;2022-11-11T10:51:04;11.30;99.90
47350;DHT22;33088;51.982;5.872;2022-11-11T10:56:57;11.30;99.90
47350;DHT22;33088;51.982;5.872;2022-11-11T10:59:52;11.40;99.90
47350;DHT22;33088;51.982;5.872;2022-11-11T11:05:47;11.60;99.90
47350;DHT22;33088;51.982;5.872;2022-11-11T11:08:40;11.70;99.90
47350;DHT22;33088;51.982;5.872;2022-11-11T11:12:13;11.80;99.90
47350;DHT22;33088;51.982;5.872;2022-11-11T11:15:03;12.00;99.90
47350;DHT22;33088;51.982;5.872;2022-11-11T11:20:33;12.10;99.90
47350;DHT22;33088;51.982;5.872;2022-11-11T11:23:43;12.30;99.90
47350;DHT22;33088;51.982;5.872;2022-11-11T11:27:07;12.20;99.90
47350;DHT22;33088;51.982;5.872;2022-11-11T11:29:50;12.10;99.90
47350;DHT22;33088;51.982;5.872;2022-11-11T11:32:34;12.20;99.90
47350;DHT22;33088;51.982;5.872;2022-11-11T11:38:18;12.20;99.90
47350;DHT22;33088;51.982;5.872;2022-11-11T11:41:02;12.20;99.90
47350;DHT22;33088;51.982;5.872;2022-11-11T11:43:46;12.20;99.90
47350;DHT22;33088;51.982;5.872;2022-11-11T11:46:38;12.10;99.90
47350;DHT22;33088;51.982;5.872;2022-11-11T12:01:13;11.70;99.90
47350;DHT22;33088;51.982;5.872;2022-11-11T12:07:35;11.60;99.90
47350;DHT22;33088;51.982;5.872;2022-11-11T12:13:07;11.60;99.90
47350;DHT22;33088;51.982;5.872;2022-11-11T12:19:19;11.50;99.90
47350;DHT22;33088;51.982;5.872;2022-11-11T12:25:22;11.40;99.90
47350;DHT22;33088;51.982;5.872;2022-11-11T12:34:41;11.50;99.90
47350;DHT22;33088;51.982;5.872;2022-11-11T12:37:23;11.60;99.90
47350;DHT22;33088;51.982;5.872;2022-11-11T12:58:59;11.70;99.90
47350;DHT22;33088;51.982;5.872;2022-11-11T13:01:56;11.80;99.90
47350;DHT22;33088;51.982;5.872;2022-11-11T13:14:08;11.80;99.90
47350;DHT22;33088;51.982;5.872;2022-11-11T13:16:55;11.80;99.90
47350;DHT22;33088;51.982;5.872;2022-11-11T13:19:56;11.90;99.90
47350;DHT22;33088;51.982;5.872;2022-11-11T13:22:42;11.80;99.90
47350;DHT22;33088;51.982;5.872;2022-11-11T13:25:30;11.80;99.90
47350;DHT22;33088;51.982;5.872;2022-11-11T13:31:24;11.80;99.90
47350;DHT22;33088;51.982;5.872;2022-11-11T13:34:14;11.80;99.90
47350;DHT22;33088;51.982;5.872;2022-11-11T13:36:58;11.80;99.90
47350;DHT22;33088;51.982;5.872;2022-11-11T13:39:46;11.80;99.90
47350;DHT22;33088;51.982;5.872;2022-11-11T13:42:38;11.90;99.90
47350;DHT22;33088;51.982;5.872;2022-11-11T13:45:28;11.90;99.90
47350;DHT22;33088;51.982;5.872;2022-11-11T13:48:46;12.00;99.90
47350;DHT22;33088;51.982;5.872;2022-11-11T13:51:40;11.90;99.90
47350;DHT22;33088;51.982;5.872;2022-11-11T13:54:26;12.00;99.90
47350;DHT22;33088;51.982;5.872;2022-11-11T13:57:23;11.80;99.90
47350;DHT22;33088;51.982;5.872;2022-11-11T14:08:59;12.10;99.90
47350;DHT22;33088;51.982;5.872;2022-11-11T14:11:43;12.10;99.90
47350;DHT22;33088;51.982;5.872;2022-11-11T14:17:15;12.10;99.90
47350;DHT22;33088;51.982;5.872;2022-11-11T14:20:53;12.20;99.90
47350;DHT22;33088;51.982;5.872;2022-11-11T14:26:24;12.10;99.90
47350;DHT22;33088;51.982;5.872;2022-11-11T14:29:16;12.00;99.90
47350;DHT22;33088;51.982;5.872;2022-11-11T14:35:36;11.90;99.90
47350;DHT22;33088;51.982;5.872;2022-11-11T14:39:41;11.90;99.90
47350;DHT22;33088;51.982;5.872;2022-11-11T14:41:59;11.90;99.90
47350;DHT22;33088;51.982;5.872;2022-11-11T14:44:44;11.80;99.90
47350;DHT22;33088;51.982;5.872;2022-11-11T14:47:34;11.90;99.90
47350;DHT22;33088;51.982;5.872;2022-11-11T14:53:19;11.90;99.90
47350;DHT22;33088;51.982;5.872;2022-11-11T14:56:13;11.80;99.90
47350;DHT22;33088;51.982;5.872;2022-11-11T14:59:05;11.70;99.90
47350;DHT22;33088;51.982;5.872;2022-11-11T15:01:51;11.60;99.90
47350;DHT22;33088;51.982;5.872;2022-11-11T15:04:37;11.50;99.90
47350;DHT22;33088;51.982;5.872;2022-11-11T15:07:36;11.50;99.90
47350;DHT22;33088;51.982;5.872;2022-11-11T15:29:04;11.10;99.90
47350;DHT22;33088;51.982;5.872;2022-11-11T15:34:42;10.90;99.90
47350;DHT22;33088;51.982;5.872;2022-11-11T15:37:29;10.90;99.90
47350;DHT22;33088;51.982;5.872;2022-11-11T15:40:19;10.70;99.90
47350;DHT22;33088;51.982;5.872;2022-11-11T15:43:03;10.60;99.90
47350;DHT22;33088;51.982;5.872;2022-11-11T15:45:54;10.70;99.90
47350;DHT22;33088;51.982;5.872;2022-11-11T15:48:43;10.50;99.90
47350;DHT22;33088;51.982;5.872;2022-11-11T15:51:31;10.50;99.90
47350;DHT22;33088;51.982;5.872;2022-11-11T15:54:20;10.40;99.90
47350;DHT22;33088;51.982;5.872;2022-11-11T15:57:32;10.30;99.90
47350;DHT22;33088;51.982;5.872;2022-11-11T16:06:06;10.10;99.90
47350;DHT22;33088;51.982;5.872;2022-11-11T16:08:52;10.10;99.90
47350;DHT22;33088;51.982;5.872;2022-11-11T16:11:39;10.00;99.90
47350;DHT22;33088;51.982;5.872;2022-11-11T16:14:38;10.00;99.90
47350;DHT22;33088;51.982;5.872;2022-11-11T16:17:28;9.90;99.90
47350;DHT22;33088;51.982;5.872;2022-11-11T16:20:15;9.90;99.90
47350;DHT22;33088;51.982;5.872;2022-11-11T16:23:06;9.80;99.90
47350;DHT22;33088;51.982;5.872;2022-11-11T16:25:51;9.80;99.90
47350;DHT22;33088;51.982;5.872;2022-11-11T16:28:40;9.80;99.90
47350;DHT22;33088;51.982;5.872;2022-11-11T16:37:11;9.80;99.90
47350;DHT22;33088;51.982;5.872;2022-11-11T16:40:19;9.80;99.90
47350;DHT22;33088;51.982;5.872;2022-11-11T16:43:46;9.90;99.90
47350;DHT22;33088;51.982;5.872;2022-11-11T16:46:41;9.70;99.90
47350;DHT22;33088;51.982;5.872;2022-11-11T16:49:34;9.80;99.90
47350;DHT22;33088;51.982;5.872;2022-11-11T16:52:22;9.80;99.90
47350;DHT22;33088;51.982;5.872;2022-11-11T16:55:10;9.70;99.90
47350;DHT22;33088;51.982;5.872;2022-11-11T16:58:02;9.70;99.90
47350;DHT22;33088;51.982;5.872;2022-11-11T17:01:01;9.60;99.90
47350;DHT22;33088;51.982;5.872;2022-11-11T17:03:56;9.60;99.90
47350;DHT22;33088;51.982;5.872;2022-11-11T17:06:51;9.60;99.90
47350;DHT22;33088;51.982;5.872;2022-11-11T17:09:39;9.50;99.90
47350;DHT22;33088;51.982;5.872;2022-11-11T17:12:30;9.50;99.90
47350;DHT22;33088;51.982;5.872;2022-11-11T17:15:19;9.50;99.90
47350;DHT22;33088;51.982;5.872;2022-11-11T17:18:04;9.50;99.90
47350;DHT22;33088;51.982;5.872;2022-11-11T17:20:48;9.50;99.90
47350;DHT22;33088;51.982;5.872;2022-11-11T17:23:34;9.40;99.90
47350;DHT22;33088;51.982;5.872;2022-11-11T17:26:19;9.30;99.90
47350;DHT22;33088;51.982;5.872;2022-11-11T17:29:04;9.30;99.90
47350;DHT22;33088;51.982;5.872;2022-11-11T17:31:50;9.20;99.90
47350;DHT22;33088;51.982;5.872;2022-11-11T17:34:34;9.20;99.90
47350;DHT22;33088;51.982;5.872;2022-11-11T17:37:19;9.20;99.90
47350;DHT22;33088;51.982;5.872;2022-11-11T17:40:05;9.10;99.90
47350;DHT22;33088;51.982;5.872;2022-11-11T17:42:49;9.20;99.90
47350;DHT22;33088;51.982;5.872;2022-11-11T17:45:33;9.20;99.90
47350;DHT22;33088;51.982;5.872;2022-11-11T17:48:17;9.10;99.90
47350;DHT22;33088;51.982;5.872;2022-11-11T17:51:04;9.20;99.90
47350;DHT22;33088;51.982;5.872;2022-11-11T17:53:50;9.20;99.90
47350;DHT22;33088;51.982;5.872;2022-11-11T17:56:35;9.10;99.90
47350;DHT22;33088;51.982;5.872;2022-11-11T17:59:21;9.10;99.90
47350;DHT22;33088;51.982;5.872;2022-11-11T18:02:06;9.00;99.90
47350;DHT22;33088;51.982;5.872;2022-11-11T18:04:52;9.00;99.90
47350;DHT22;33088;51.982;5.872;2022-11-11T18:07:41;9.00;99.90
47350;DHT22;33088;51.982;5.872;2022-11-11T18:10:25;9.00;99.90
47350;DHT22;33088;51.982;5.872;2022-11-11T18:13:09;9.00;99.90
47350;DHT22;33088;51.982;5.872;2022-11-11T18:15:53;8.90;99.90
47350;DHT22;33088;51.982;5.872;2022-11-11T18:18:39;8.90;99.90
47350;DHT22;33088;51.982;5.872;2022-11-11T18:21:26;8.80;99.90
47350;DHT22;33088;51.982;5.872;2022-11-11T18:24:10;8.70;99.90
47350;DHT22;33088;51.982;5.872;2022-11-11T18:26:55;8.70;99.90
47350;DHT22;33088;51.982;5.872;2022-11-11T18:29:39;8.70;99.90
47350;DHT22;33088;51.982;5.872;2022-11-11T18:32:24;8.70;99.90
47350;DHT22;33088;51.982;5.872;2022-11-11T18:35:08;8.70;99.90
47350;DHT22;33088;51.982;5.872;2022-11-11T18:37:53;8.70;99.90
47350;DHT22;33088;51.982;5.872;2022-11-11T18:40:37;8.60;99.90
47350;DHT22;33088;51.982;5.872;2022-11-11T18:43:21;8.50;99.90
47350;DHT22;33088;51.982;5.872;2022-11-11T18:46:08;8.60;99.90
47350;DHT22;33088;51.982;5.872;2022-11-11T18:48:57;8.50;99.90
47350;DHT22;33088;51.982;5.872;2022-11-11T18:51:43;8.50;99.90
47350;DHT22;33088;51.982;5.872;2022-11-11T18:54:27;8.50;99.90
47350;DHT22;33088;51.982;5.872;2022-11-11T18:57:11;8.50;99.90
47350;DHT22;33088;51.982;5.872;2022-11-11T18:59:55;8.40;99.90
47350;DHT22;33088;51.982;5.872;2022-11-11T19:02:39;8.40;99.90
47350;DHT22;33088;51.982;5.872;2022-11-11T19:05:23;8.30;99.90
47350;DHT22;33088;51.982;5.872;2022-11-11T19:08:07;8.50;99.90
47350;DHT22;33088;51.982;5.872;2022-11-11T19:10:51;8.30;99.90
47350;DHT22;33088;51.982;5.872;2022-11-11T19:13:36;8.30;99.90
47350;DHT22;33088;51.982;5.872;2022-11-11T19:16:21;8.20;99.90
47350;DHT22;33088;51.982;5.872;2022-11-11T19:19:06;8.20;99.90
47350;DHT22;33088;51.982;5.872;2022-11-11T19:21:51;8.20;99.90
47350;DHT22;33088;51.982;5.872;2022-11-11T19:24:35;8.20;99.90
47350;DHT22;33088;51.982;5.872;2022-11-11T19:27:19;8.10;99.90
47350;DHT22;33088;51.982;5.872;2022-11-11T19:30:04;8.10;99.90
47350;DHT22;33088;51.982;5.872;2022-11-11T19:32:48;8.10;99.90
47350;DHT22;33088;51.982;5.872;2022-11-11T19:35:32;8.10;99.90
47350;DHT22;33088;51.982;5.872;2022-11-11T19:38:16;8.20;99.90
47350;DHT22;33088;51.982;5.872;2022-11-11T19:41:12;8.20;99.90
47350;DHT22;33088;51.982;5.872;2022-11-11T19:43:57;8.10;99.90
47350;DHT22;33088;51.982;5.872;2022-11-11T19:46:41;8.00;99.90
47350;DHT22;33088;51.982;5.872;2022-11-11T19:49:26;8.00;99.90
47350;DHT22;33088;51.982;5.872;2022-11-11T19:52:10;7.90;99.90
47350;DHT22;33088;51.982;5.872;2022-11-11T19:54:54;8.00;99.90
47350;DHT22;33088;51.982;5.872;2022-11-11T19:57:38;8.00;99.90
47350;DHT22;33088;51.982;5.872;2022-11-11T20:00:22;7.90;99.90
47350;DHT22;33088;51.982;5.872;2022-11-11T20:03:07;7.90;99.90
47350;DHT22;33088;51.982;5.872;2022-11-11T20:05:51;7.90;99.90
47350;DHT22;33088;51.982;5.872;2022-11-11T20:08:35;8.10;99.90
47350;DHT22;33088;51.982;5.872;2022-11-11T20:11:20;7.90;99.90
47350;DHT22;33088;51.982;5.872;2022-11-11T20:14:04;8.00;99.90
47350;DHT22;33088;51.982;5.872;2022-11-11T20:16:50;8.10;99.90
47350;DHT22;33088;51.982;5.872;2022-11-11T20:19:34;8.10;99.90
47350;DHT22;33088;51.982;5.872;2022-11-11T20:22:18;8.00;99.90
47350;DHT22;33088;51.982;5.872;2022-11-11T20:25:03;8.00;99.90